createdAt,value
2023-10-14T00:00:49.146Z,8.50
2023-10-14T00:01:55.299Z,8.38
2023-10-14T00:03:07.110Z,7.97
2023-10-14T00:04:11.545Z,8.48
2023-10-14T00:05:16.986Z,7.40
2023-10-14T00:06:20.443Z,7.80
2023-10-14T00:07:27.114Z,7.50
2023-10-14T00:08:33.273Z,9.45
2023-10-14T00:09:44.897Z,10.18
2023-10-14T00:10:48.971Z,8.48
2023-10-14T00:11:56.139Z,8.63
2023-10-14T00:12:59.586Z,8.32
2023-10-14T00:14:20.118Z,8.98
2023-10-14T00:15:23.365Z,10.48
2023-10-14T00:16:36.753Z,7.55
2023-10-14T00:17:43.572Z,9.30
2023-10-14T00:18:49.792Z,10.43
2023-10-14T00:19:57.600Z,9.10
2023-10-14T00:21:01.051Z,9.65
2023-10-14T00:22:06.723Z,7.85
2023-10-14T00:23:09.875Z,8.45
2023-10-14T00:24:17.686Z,8.10
2023-10-14T00:25:27.049Z,8.40
2023-10-14T00:26:34.169Z,7.68
2023-10-14T00:27:38.696Z,8.38
2023-10-14T00:28:46.729Z,8.77
2023-10-14T00:29:50.497Z,7.88
2023-10-14T00:30:57.067Z,8.23
2023-10-14T00:32:00.720Z,8.13
2023-10-14T00:33:04.891Z,7.20
2023-10-14T00:34:08.661Z,8.07
2023-10-14T00:35:19.872Z,9.55
2023-10-14T00:36:24.206Z,7.03
2023-10-14T00:37:27.403Z,8.52
2023-10-14T00:38:35.927Z,7.75
2023-10-14T00:39:39.334Z,8.10
2023-10-14T00:40:47.093Z,7.18
2023-10-14T00:41:52.127Z,8.38
2023-10-14T00:42:57.554Z,7.20
2023-10-14T00:44:00.853Z,7.40
2023-10-14T00:45:13.258Z,7.90
2023-10-14T00:46:17.729Z,7.97
2023-10-14T00:47:25.924Z,8.10
2023-10-14T00:48:31.036Z,8.05
2023-10-14T00:49:36.011Z,6.85
2023-10-14T00:50:42.806Z,9.32
2023-10-14T00:51:50.973Z,7.80
2023-10-14T00:53:01.755Z,7.47
2023-10-14T00:54:06.870Z,7.95
2023-10-14T00:55:14.655Z,9.55
2023-10-14T00:56:19.917Z,7.60
2023-10-14T00:57:23.133Z,9.57
2023-10-14T00:58:29.935Z,7.13
2023-10-14T00:59:33.381Z,7.65
2023-10-14T01:00:39.872Z,8.30
2023-10-14T01:02:02.973Z,7.78
2023-10-14T01:03:11.043Z,7.80
2023-10-14T01:05:24.606Z,7.78
2023-10-14T01:06:36.239Z,7.95
2023-10-14T01:07:40.732Z,7.63
2023-10-14T01:08:46.380Z,8.35
2023-10-14T01:09:50.045Z,7.38
2023-10-14T01:10:54.562Z,9.70
2023-10-14T01:11:57.920Z,8.18
2023-10-14T01:13:08.093Z,8.43
2023-10-14T01:14:15.978Z,8.95
2023-10-14T01:15:22.915Z,7.40
2023-10-14T01:16:27.307Z,8.98
2023-10-14T01:17:33.724Z,8.77
2023-10-14T01:18:39.686Z,7.50
2023-10-14T01:19:44.607Z,8.95
2023-10-14T01:20:47.908Z,8.27
2023-10-14T01:21:53.596Z,8.15
2023-10-14T01:22:59.735Z,9.25
2023-10-14T01:24:03.246Z,8.35
2023-10-14T01:25:14.056Z,7.47
2023-10-14T01:26:18.414Z,8.35
2023-10-14T01:27:23.122Z,8.38
2023-10-14T01:28:31.679Z,8.30
2023-10-14T01:29:42.894Z,7.65
2023-10-14T01:31:43.177Z,8.38
2023-10-14T01:32:49.470Z,7.47
2023-10-14T01:33:53.194Z,7.50
2023-10-14T01:35:00.843Z,7.03
2023-10-14T01:36:10.106Z,8.30
2023-10-14T01:37:19.432Z,7.97
2023-10-14T01:38:25.727Z,7.57
2023-10-14T01:39:29.497Z,8.85
2023-10-14T01:40:51.151Z,8.25
2023-10-14T01:41:58.353Z,7.28
2023-10-14T01:43:07.865Z,7.82
2023-10-14T01:44:11.401Z,7.07
2023-10-14T01:45:19.460Z,7.30
2023-10-14T01:46:22.894Z,7.43
2023-10-14T01:47:27.370Z,7.32
2023-10-14T01:48:33.454Z,8.85
2023-10-14T01:49:38.122Z,7.15
2023-10-14T01:50:47.739Z,7.80
2023-10-14T01:51:51.778Z,6.55
2023-10-14T01:52:55.196Z,6.97
2023-10-14T01:53:58.516Z,7.63
2023-10-14T01:55:01.781Z,7.25
2023-10-14T01:56:07.921Z,7.45
2023-10-14T01:57:19.005Z,7.50
2023-10-14T01:58:24.101Z,8.25
2023-10-14T01:59:29.074Z,7.60
2023-10-14T02:00:39.952Z,7.30
2023-10-14T02:01:43.348Z,8.98
2023-10-14T02:03:02.101Z,8.30
2023-10-14T02:04:05.861Z,6.90
2023-10-14T02:05:09.753Z,8.13
2023-10-14T02:06:18.570Z,8.23
2023-10-14T02:07:27.783Z,7.78
2023-10-14T02:08:31.030Z,8.85
2023-10-14T02:09:37.480Z,8.25
2023-10-14T02:10:55.482Z,9.23
2023-10-14T02:11:58.956Z,7.22
2023-10-14T02:13:03.012Z,8.55
2023-10-14T02:14:09.693Z,8.57
2023-10-14T02:15:14.580Z,7.28
2023-10-14T02:16:31.281Z,8.15
2023-10-14T02:17:34.840Z,8.77
2023-10-14T02:18:38.936Z,8.65
2023-10-14T02:19:43.374Z,7.90
2023-10-14T02:20:57.922Z,7.50
2023-10-14T02:22:01.740Z,7.82
2023-10-14T02:23:06.552Z,8.73
2023-10-14T02:24:12.130Z,7.13
2023-10-14T02:25:16.901Z,9.20
2023-10-14T02:26:35.230Z,7.95
2023-10-14T02:27:38.654Z,7.65
2023-10-14T02:28:42.259Z,7.57
2023-10-14T02:29:48.427Z,9.18
2023-10-14T02:30:52.984Z,7.30
2023-10-14T02:31:56.796Z,8.35
2023-10-14T02:33:00.469Z,8.25
2023-10-14T02:34:08.534Z,9.77
2023-10-14T02:35:16.616Z,7.78
2023-10-14T02:36:19.995Z,10.05
2023-10-14T02:37:23.680Z,8.23
2023-10-14T02:38:27.161Z,7.40
2023-10-14T02:39:30.746Z,8.05
2023-10-14T02:40:38.447Z,7.05
2023-10-14T02:41:45.735Z,8.35
2023-10-14T02:42:59.126Z,7.93
2023-10-14T02:44:23.142Z,8.77
2023-10-14T02:45:28.786Z,10.57
2023-10-14T02:46:32.461Z,8.30
2023-10-14T02:47:39.523Z,9.95
2023-10-14T02:48:55.415Z,8.55
2023-10-14T02:50:07.186Z,8.23
2023-10-14T02:51:12.067Z,7.25
2023-10-14T02:52:41.729Z,9.98
2023-10-14T02:53:46.827Z,8.27
2023-10-14T02:54:56.067Z,12.10
2023-10-14T02:56:06.436Z,7.90
2023-10-14T02:57:24.682Z,10.30
2023-10-14T02:58:31.083Z,9.65
2023-10-14T02:59:43.973Z,8.45
2023-10-14T03:00:50.992Z,8.05
2023-10-14T03:02:13.005Z,9.23
2023-10-14T03:03:20.807Z,8.70
2023-10-14T03:04:25.664Z,8.45
2023-10-14T03:05:38.820Z,8.70
2023-10-14T03:06:54.897Z,8.63
2023-10-14T03:07:58.488Z,9.25
2023-10-14T03:09:01.977Z,11.32
2023-10-14T03:10:13.010Z,9.88
2023-10-14T03:11:23.280Z,8.35
2023-10-14T03:12:27.430Z,8.73
2023-10-14T03:13:31.216Z,9.73
2023-10-14T03:14:42.132Z,10.13
2023-10-14T03:15:49.322Z,9.63
2023-10-14T03:16:53.653Z,9.25
2023-10-14T03:18:00.010Z,8.95
2023-10-14T03:19:04.476Z,7.85
2023-10-14T03:20:31.400Z,11.40
2023-10-14T03:21:42.303Z,8.02
2023-10-14T03:22:46.118Z,8.77
2023-10-14T03:23:49.519Z,9.25
2023-10-14T03:25:10.939Z,9.90
2023-10-14T03:26:15.315Z,9.88
2023-10-14T03:27:20.586Z,8.35
2023-10-14T03:28:28.530Z,7.68
2023-10-14T03:29:31.694Z,8.77
2023-10-14T03:30:38.794Z,8.27
2023-10-14T03:31:46.469Z,9.73
2023-10-14T03:32:50.186Z,7.85
2023-10-14T03:34:00.327Z,10.88
2023-10-14T03:35:12.022Z,8.75
2023-10-14T03:36:19.142Z,9.70
2023-10-14T03:37:27.245Z,9.45
2023-10-14T03:38:39.460Z,9.43
2023-10-14T03:39:47.527Z,9.32
2023-10-14T03:40:50.677Z,9.40
2023-10-14T03:41:54.272Z,8.75
2023-10-14T03:43:07.399Z,9.27
2023-10-14T03:44:16.203Z,12.25
2023-10-14T03:45:25.863Z,10.00
2023-10-14T03:46:37.180Z,9.05
2023-10-14T03:47:41.674Z,9.35
2023-10-14T03:48:48.559Z,9.10
2023-10-14T03:49:57.805Z,10.90
2023-10-14T03:51:04.787Z,9.27
2023-10-14T03:52:11.745Z,8.55
2023-10-14T03:53:15.235Z,10.93
2023-10-14T03:54:25.503Z,9.65
2023-10-14T03:55:29.215Z,9.73
2023-10-14T03:56:33.062Z,11.25
2023-10-14T03:57:38.970Z,8.23
2023-10-14T03:58:46.664Z,8.10
2023-10-14T03:59:49.877Z,8.00
2023-10-14T04:00:53.753Z,9.52
2023-10-14T04:02:00.589Z,9.90
2023-10-14T04:03:15.633Z,9.10
2023-10-14T04:04:19.280Z,9.00
2023-10-14T04:05:22.563Z,8.30
2023-10-14T04:06:26.940Z,8.15
2023-10-14T04:07:31.251Z,8.00
2023-10-14T04:08:41.244Z,9.05
2023-10-14T04:10:06.489Z,8.32
2023-10-14T04:11:17.167Z,8.88
2023-10-14T04:12:36.734Z,8.10
2023-10-14T04:14:00.307Z,10.50
2023-10-14T04:15:16.595Z,11.18
2023-10-14T04:16:28.810Z,8.88
2023-10-14T04:17:32.064Z,8.25
2023-10-14T04:18:36.034Z,9.73
2023-10-14T04:19:46.558Z,9.07
2023-10-14T04:21:03.887Z,10.98
2023-10-14T04:22:26.985Z,9.13
2023-10-14T04:23:33.414Z,8.23
2023-10-14T04:24:36.917Z,8.85
2023-10-14T04:25:58.166Z,9.30
2023-10-14T04:27:31.798Z,9.45
2023-10-14T04:28:40.980Z,9.23
2023-10-14T04:29:53.130Z,10.32
2023-10-14T04:30:57.141Z,10.98
2023-10-14T04:32:00.411Z,8.35
2023-10-14T04:33:03.996Z,8.52
2023-10-14T04:34:16.771Z,8.57
2023-10-14T04:35:24.580Z,7.75
2023-10-14T04:36:46.738Z,9.15
2023-10-14T04:38:00.128Z,9.25
2023-10-14T04:39:19.279Z,10.50
2023-10-14T04:40:34.226Z,9.93
2023-10-14T04:41:38.378Z,7.93
2023-10-14T04:42:44.324Z,10.50
2023-10-14T04:43:50.110Z,8.20
2023-10-14T04:44:56.856Z,9.93
2023-10-14T04:46:17.032Z,8.93
2023-10-14T04:47:29.064Z,8.93
2023-10-14T04:48:35.452Z,9.30
2023-10-14T04:49:43.554Z,10.10
2023-10-14T04:50:46.974Z,10.05
2023-10-14T04:51:50.288Z,8.65
2023-10-14T04:52:53.577Z,9.18
2023-10-14T04:54:01.534Z,10.57
2023-10-14T04:55:24.894Z,9.80
2023-10-14T04:56:35.310Z,9.45
2023-10-14T04:57:42.371Z,8.43
2023-10-14T04:59:55.346Z,9.43
2023-10-14T05:01:04.876Z,11.18
2023-10-14T05:02:13.252Z,7.97
2023-10-14T05:03:24.359Z,8.68
2023-10-14T05:04:34.987Z,9.57
2023-10-14T05:05:39.618Z,9.90
2023-10-14T05:06:49.227Z,8.60
2023-10-14T05:07:52.520Z,9.93
2023-10-14T05:08:58.730Z,11.57
2023-10-14T05:10:08.884Z,9.07
2023-10-14T05:11:17.968Z,11.70
2023-10-14T05:12:25.992Z,11.80
2023-10-14T05:13:35.849Z,10.18
2023-10-14T05:14:39.877Z,8.85
2023-10-14T05:15:44.679Z,8.77
2023-10-14T05:16:54.482Z,9.32
2023-10-14T05:18:02.182Z,10.27
2023-10-14T05:19:12.705Z,10.65
2023-10-14T05:20:29.882Z,10.70
2023-10-14T05:21:36.864Z,9.23
2023-10-14T05:22:42.763Z,8.98
2023-10-14T05:23:48.319Z,10.75
2023-10-14T05:25:04.799Z,10.15
2023-10-14T05:26:09.849Z,10.32
2023-10-14T05:27:13.326Z,10.38
2023-10-14T05:28:18.456Z,9.15
2023-10-14T05:29:23.900Z,9.63
2023-10-14T05:30:35.075Z,8.93
2023-10-14T05:31:39.221Z,10.88
2023-10-14T05:32:45.730Z,9.85
2023-10-14T05:33:50.312Z,11.68
2023-10-14T05:34:55.654Z,9.60
2023-10-14T05:35:59.931Z,9.75
2023-10-14T05:37:08.720Z,11.35
2023-10-14T05:38:15.396Z,10.35
2023-10-14T05:39:19.420Z,9.70
2023-10-14T05:40:23.412Z,10.07
2023-10-14T05:41:27.477Z,10.15
2023-10-14T05:42:30.876Z,11.43
2023-10-14T05:43:34.646Z,10.52
2023-10-14T05:44:40.025Z,9.82
2023-10-14T05:45:43.857Z,9.77
2023-10-14T05:46:47.443Z,9.50
2023-10-14T05:47:51.147Z,9.75
2023-10-14T05:48:54.792Z,11.20
2023-10-14T05:49:58.732Z,10.40
2023-10-14T05:51:04.371Z,10.27
2023-10-14T05:52:07.929Z,9.80
2023-10-14T05:53:11.718Z,10.90
2023-10-14T05:54:15.332Z,10.70
2023-10-14T05:55:21.621Z,9.93
2023-10-14T05:57:35.821Z,11.02
2023-10-14T05:58:39.690Z,10.38
2023-10-14T05:59:45.212Z,8.15
2023-10-14T06:00:52.938Z,11.80
2023-10-14T06:01:56.528Z,10.38
2023-10-14T06:03:00.299Z,9.02
2023-10-14T06:04:04.150Z,9.98
2023-10-14T06:05:08.379Z,9.38
2023-10-14T06:06:15.960Z,12.18
2023-10-14T06:07:22.575Z,11.73
2023-10-14T06:08:26.016Z,10.02
2023-10-14T06:09:32.935Z,8.93
2023-10-14T06:10:38.166Z,10.73
2023-10-14T06:11:42.390Z,11.15
2023-10-14T06:12:46.092Z,11.82
2023-10-14T06:13:49.372Z,10.45
2023-10-14T06:14:52.542Z,10.55
2023-10-14T06:15:55.763Z,12.15
2023-10-14T06:16:59.586Z,11.52
2023-10-14T06:18:02.984Z,11.25
2023-10-14T06:19:07.266Z,9.95
2023-10-14T06:20:15.385Z,10.75
2023-10-14T06:21:19.156Z,10.88
2023-10-14T06:22:22.632Z,9.98
2023-10-14T06:23:28.952Z,11.02
2023-10-14T06:24:35.029Z,11.50
2023-10-14T06:25:40.023Z,10.52
2023-10-14T06:26:43.397Z,11.27
2023-10-14T06:27:49.855Z,9.77
2023-10-14T06:28:57.481Z,10.80
2023-10-14T06:30:00.917Z,11.45
2023-10-14T06:31:05.680Z,10.70
2023-10-14T06:32:20.291Z,12.98
2023-10-14T06:33:28.128Z,10.18
2023-10-14T06:34:36.082Z,10.10
2023-10-14T06:35:44.021Z,10.63
2023-10-14T06:36:49.513Z,11.05
2023-10-14T06:37:55.283Z,10.57
2023-10-14T06:39:14.372Z,10.80
2023-10-14T06:40:21.960Z,11.30
2023-10-14T06:41:25.373Z,11.10
2023-10-14T06:42:29.262Z,10.82
2023-10-14T06:43:35.410Z,10.93
2023-10-14T06:44:39.689Z,11.75
2023-10-14T06:45:43.357Z,9.60
2023-10-14T06:46:46.744Z,11.40
2023-10-14T06:47:53.210Z,11.48
2023-10-14T06:48:57.064Z,12.60
2023-10-14T06:50:03.222Z,10.60
2023-10-14T06:51:07.861Z,10.77
2023-10-14T06:52:13.787Z,10.82
2023-10-14T06:53:19.784Z,10.43
2023-10-14T06:54:26.935Z,10.85
2023-10-14T06:55:38.503Z,10.23
2023-10-14T06:56:42.154Z,10.15
2023-10-14T06:57:49.049Z,10.93
2023-10-14T06:58:52.970Z,9.73
2023-10-14T06:59:56.176Z,9.82
2023-10-14T07:01:00.656Z,9.52
2023-10-14T07:02:04.618Z,8.07
2023-10-14T07:03:18.463Z,9.30
2023-10-14T07:04:22.299Z,11.70
2023-10-14T07:05:25.850Z,11.00
2023-10-14T07:06:29.317Z,9.20
2023-10-14T07:07:34.205Z,10.75
2023-10-14T07:08:37.793Z,10.65
2023-10-14T07:09:46.178Z,9.98
2023-10-14T07:10:53.655Z,10.15
2023-10-14T07:11:59.523Z,10.98
2023-10-14T07:13:03.243Z,10.13
2023-10-14T07:14:06.762Z,9.32
2023-10-14T07:15:16.521Z,8.57
2023-10-14T07:16:20.448Z,9.80
2023-10-14T07:17:24.357Z,10.57
2023-10-14T07:18:30.211Z,10.15
2023-10-14T07:19:33.716Z,9.82
2023-10-14T07:20:37.065Z,10.30
2023-10-14T07:21:40.427Z,11.43
2023-10-14T07:22:43.711Z,9.98
2023-10-14T07:23:47.145Z,9.90
2023-10-14T07:24:50.948Z,8.20
2023-10-14T07:25:54.377Z,9.98
2023-10-14T07:26:58.794Z,9.55
2023-10-14T07:28:08.817Z,10.80
2023-10-14T07:29:12.001Z,9.35
2023-10-14T07:30:15.414Z,8.35
2023-10-14T07:31:19.654Z,8.60
2023-10-14T07:32:23.303Z,8.45
2023-10-14T07:33:26.635Z,9.30
2023-10-14T07:34:29.982Z,9.82
2023-10-14T07:35:33.632Z,8.90
2023-10-14T07:36:37.268Z,10.20
2023-10-14T07:37:46.475Z,8.75
2023-10-14T07:38:49.693Z,10.07
2023-10-14T07:39:54.650Z,9.13
2023-10-14T07:41:00.202Z,7.90
2023-10-14T07:42:11.017Z,9.98
2023-10-14T07:43:14.571Z,7.55
2023-10-14T07:44:18.605Z,8.00
2023-10-14T07:45:30.066Z,8.45
2023-10-14T07:46:33.365Z,10.63
2023-10-14T07:47:36.672Z,9.60
2023-10-14T07:48:41.771Z,9.18
2023-10-14T07:49:46.304Z,10.40
2023-10-14T07:50:50.395Z,9.00
2023-10-14T07:51:55.821Z,8.23
2023-10-14T07:53:08.986Z,8.48
2023-10-14T07:55:17.302Z,8.82
2023-10-14T07:56:24.280Z,8.85
2023-10-14T07:57:28.641Z,8.80
2023-10-14T07:58:32.706Z,8.18
2023-10-14T07:59:36.087Z,9.20
2023-10-14T08:00:40.963Z,9.80
2023-10-14T08:01:47.301Z,8.85
2023-10-14T08:02:53.145Z,8.25
2023-10-14T08:03:58.783Z,8.85
2023-10-14T08:05:06.621Z,9.02
2023-10-14T08:06:11.927Z,6.97
2023-10-14T08:07:15.983Z,6.90
2023-10-14T08:08:23.324Z,8.45
2023-10-14T08:09:30.153Z,7.55
2023-10-14T08:10:33.696Z,7.18
2023-10-14T08:11:38.704Z,7.35
2023-10-14T08:12:42.162Z,7.70
2023-10-14T08:13:56.113Z,8.98
2023-10-14T08:15:00.818Z,7.20
2023-10-14T08:16:09.507Z,9.25
2023-10-14T08:17:13.461Z,8.77
2023-10-14T08:18:17.324Z,7.28
2023-10-14T08:19:23.931Z,7.40
2023-10-14T08:20:29.635Z,8.00
2023-10-14T08:21:32.990Z,8.43
2023-10-14T08:22:37.327Z,8.27
2023-10-14T08:23:40.646Z,6.35
2023-10-14T08:24:44.036Z,7.88
2023-10-14T08:25:48.206Z,6.63
2023-10-14T08:26:55.127Z,6.85
2023-10-14T08:27:59.197Z,8.05
2023-10-14T08:29:03.497Z,7.65
2023-10-14T08:30:12.277Z,6.75
2023-10-14T08:31:16.337Z,6.55
2023-10-14T08:32:21.268Z,8.00
2023-10-14T08:33:26.385Z,8.60
2023-10-14T08:34:29.551Z,7.78
2023-10-14T08:35:32.971Z,6.78
2023-10-14T08:36:36.185Z,7.07
2023-10-14T08:37:39.787Z,7.28
2023-10-14T08:38:45.420Z,7.70
2023-10-14T08:39:48.971Z,7.47
2023-10-14T08:40:56.385Z,8.48
2023-10-14T08:42:01.937Z,7.55
2023-10-14T08:43:09.069Z,7.43
2023-10-14T08:44:13.399Z,7.22
2023-10-14T08:45:24.012Z,5.97
2023-10-14T08:46:35.935Z,6.28
2023-10-14T08:47:42.067Z,7.35
2023-10-14T08:48:50.541Z,6.18
2023-10-14T08:49:55.470Z,7.05
2023-10-14T08:50:59.513Z,7.35
2023-10-14T08:52:10.806Z,6.70
2023-10-14T08:53:14.935Z,6.63
2023-10-14T08:54:20.531Z,6.75
2023-10-14T08:55:24.403Z,7.97
2023-10-14T08:56:27.884Z,6.70
2023-10-14T08:57:32.816Z,6.88
2023-10-14T08:58:39.896Z,6.32
2023-10-14T08:59:45.744Z,6.70
2023-10-14T09:00:49.528Z,5.80
2023-10-14T09:01:57.958Z,5.78
2023-10-14T09:03:01.388Z,7.45
2023-10-14T09:04:05.317Z,7.00
2023-10-14T09:05:12.939Z,6.53
2023-10-14T09:06:16.303Z,6.60
2023-10-14T09:07:23.705Z,6.90
2023-10-14T09:08:34.527Z,5.95
2023-10-14T09:09:37.799Z,5.68
2023-10-14T09:10:41.147Z,5.88
2023-10-14T09:11:45.392Z,5.65
2023-10-14T09:13:11.033Z,6.60
2023-10-14T09:14:16.054Z,6.85
2023-10-14T09:15:22.496Z,5.95
2023-10-14T09:16:28.868Z,6.50
2023-10-14T09:17:32.434Z,6.53
2023-10-14T09:18:35.895Z,6.45
2023-10-14T09:19:50.201Z,5.82
2023-10-14T09:20:56.240Z,6.68
2023-10-14T09:22:03.451Z,5.88
2023-10-14T09:23:20.488Z,6.78
2023-10-14T09:24:24.224Z,5.72
2023-10-14T09:25:27.806Z,5.53
2023-10-14T09:26:45.273Z,6.28
2023-10-14T09:27:50.351Z,6.57
2023-10-14T09:28:53.760Z,5.95
2023-10-14T09:29:58.610Z,6.13
2023-10-14T09:31:09.272Z,5.07
2023-10-14T09:32:13.716Z,6.57
2023-10-14T09:33:23.594Z,6.18
2023-10-14T09:34:28.396Z,6.10
2023-10-14T09:35:32.133Z,6.03
2023-10-14T09:36:37.375Z,6.10
2023-10-14T09:37:41.165Z,6.15
2023-10-14T09:38:49.981Z,6.18
2023-10-14T09:40:03.997Z,6.18
2023-10-14T09:41:11.699Z,5.22
2023-10-14T09:42:16.756Z,5.72
2023-10-14T09:43:21.378Z,6.07
2023-10-14T09:44:27.097Z,6.40
2023-10-14T09:45:34.268Z,5.63
2023-10-14T09:47:48.074Z,5.93
2023-10-14T09:48:57.344Z,5.82
2023-10-14T09:50:00.688Z,6.70
2023-10-14T09:51:06.128Z,5.78
2023-10-14T09:52:16.117Z,5.55
2023-10-14T09:53:20.404Z,4.85
2023-10-14T09:54:26.074Z,6.25
2023-10-14T09:55:29.691Z,5.22
2023-10-14T09:56:42.981Z,5.18
2023-10-14T09:57:48.310Z,6.25
2023-10-14T09:58:52.567Z,5.93
2023-10-14T09:59:57.769Z,4.72
2023-10-14T10:01:05.385Z,6.25
2023-10-14T10:02:11.266Z,6.13
2023-10-14T10:03:15.231Z,5.70
2023-10-14T10:04:23.422Z,5.38
2023-10-14T10:05:37.546Z,5.90
2023-10-14T10:07:06.333Z,6.13
2023-10-14T10:08:28.506Z,6.35
2023-10-14T10:09:51.268Z,5.18
2023-10-14T10:10:56.486Z,4.82
2023-10-14T10:12:01.176Z,4.97
2023-10-14T10:13:05.744Z,5.13
2023-10-14T10:14:14.348Z,5.95
2023-10-14T10:15:21.223Z,4.75
2023-10-14T10:17:40.922Z,5.38
2023-10-14T10:18:58.448Z,4.43
2023-10-14T10:20:18.472Z,5.13
2023-10-14T10:21:21.970Z,4.93
2023-10-14T10:22:25.276Z,5.68
2023-10-14T10:23:31.279Z,5.10
2023-10-14T10:24:41.848Z,4.63
2023-10-14T10:25:51.948Z,5.82
2023-10-14T10:27:11.872Z,4.28
2023-10-14T10:28:29.993Z,4.82
2023-10-14T10:29:34.812Z,6.13
2023-10-14T10:30:48.555Z,6.18
2023-10-14T10:32:13.578Z,5.63
2023-10-14T10:34:21.317Z,4.75
2023-10-14T10:35:25.901Z,5.45
2023-10-14T10:36:34.428Z,4.60
2023-10-14T10:37:58.853Z,4.55
2023-10-14T10:39:17.645Z,5.25
2023-10-14T10:40:29.875Z,4.72
2023-10-14T10:41:38.177Z,5.28
2023-10-14T10:42:54.785Z,5.40
2023-10-14T10:44:04.167Z,4.63
2023-10-14T10:45:17.209Z,5.13
2023-10-14T10:46:43.411Z,5.15
2023-10-14T10:47:53.508Z,5.05
2023-10-14T10:48:57.047Z,5.13
2023-10-14T10:50:01.214Z,6.57
2023-10-14T10:51:05.606Z,4.90
2023-10-14T10:52:09.287Z,6.10
2023-10-14T10:53:17.982Z,4.43
2023-10-14T10:54:24.000Z,3.95
2023-10-14T10:55:28.560Z,4.35
2023-10-14T10:56:34.778Z,4.40
2023-10-14T10:57:41.535Z,4.20
2023-10-14T10:58:45.135Z,4.32
2023-10-14T10:59:48.357Z,3.83
2023-10-14T11:00:52.561Z,3.75
2023-10-14T11:03:04.533Z,3.88
2023-10-14T11:04:11.431Z,3.80
2023-10-14T11:05:14.860Z,4.72
2023-10-14T11:06:20.759Z,4.25
2023-10-14T11:07:26.559Z,4.63
2023-10-14T11:08:29.977Z,4.13
2023-10-14T11:09:33.418Z,4.13
2023-10-14T11:10:46.102Z,4.88
2023-10-14T11:11:50.410Z,3.92
2023-10-14T11:12:56.669Z,4.28
2023-10-14T11:14:15.819Z,4.30
2023-10-14T11:15:24.219Z,3.83
2023-10-14T11:16:30.236Z,4.07
2023-10-14T11:17:34.103Z,4.72
2023-10-14T11:18:39.273Z,4.43
2023-10-14T11:19:47.447Z,3.90
2023-10-14T11:21:06.772Z,5.18
2023-10-14T11:22:13.549Z,3.25
2023-10-14T11:23:21.163Z,3.75
2023-10-14T11:26:24.862Z,4.32
2023-10-14T11:27:32.028Z,3.40
2023-10-14T11:28:39.258Z,3.47
2023-10-14T11:29:43.546Z,4.78
2023-10-14T11:30:49.457Z,3.75
2023-10-14T11:32:00.096Z,3.35
2023-10-14T11:33:03.690Z,3.28
2023-10-14T11:34:08.448Z,3.45
2023-10-14T11:35:12.361Z,3.13
2023-10-14T11:36:19.621Z,3.40
2023-10-14T11:37:28.718Z,3.95
2023-10-14T11:38:33.780Z,3.15
2023-10-14T11:39:37.924Z,3.80
2023-10-14T11:40:50.173Z,2.97
2023-10-14T11:41:53.732Z,3.38
2023-10-14T11:42:57.539Z,3.42
2023-10-14T11:44:05.883Z,3.90
2023-10-14T11:45:09.723Z,3.63
2023-10-14T11:46:18.740Z,3.60
2023-10-14T11:47:22.597Z,2.30
2023-10-14T11:48:37.823Z,3.78
2023-10-14T11:49:47.825Z,2.88
2023-10-14T11:50:54.663Z,2.40
2023-10-14T11:52:01.936Z,3.67
2023-10-14T11:53:07.495Z,3.28
2023-10-14T11:54:16.331Z,3.28
2023-10-14T11:55:21.388Z,3.00
2023-10-14T11:56:25.181Z,2.90
2023-10-14T11:57:28.834Z,4.32
2023-10-14T11:58:41.970Z,3.10
2023-10-14T11:59:46.253Z,3.47
2023-10-14T12:00:50.467Z,3.95
2023-10-14T12:01:53.988Z,3.20
2023-10-14T12:02:57.907Z,2.80
2023-10-14T12:04:04.690Z,2.30
2023-10-14T12:07:18.291Z,2.70
2023-10-14T12:08:24.224Z,2.78
2023-10-14T12:09:30.152Z,2.97
2023-10-14T12:10:33.787Z,2.65
2023-10-14T12:11:43.333Z,2.85
2023-10-14T12:12:53.922Z,2.63
2023-10-14T12:13:57.169Z,2.50
2023-10-14T12:15:01.161Z,2.67
2023-10-14T12:16:07.009Z,2.22
2023-10-14T12:17:13.915Z,2.60
2023-10-14T12:18:18.455Z,4.00
2023-10-14T12:19:21.847Z,3.17
2023-10-14T12:20:26.140Z,3.17
2023-10-14T12:21:29.528Z,3.67
2023-10-14T12:22:33.835Z,2.78
2023-10-14T12:23:37.422Z,3.13
2023-10-14T12:24:40.619Z,2.50
2023-10-14T12:25:43.914Z,2.45
2023-10-14T12:26:47.396Z,2.47
2023-10-14T12:27:50.961Z,3.33
2023-10-14T12:28:54.866Z,2.63
2023-10-14T12:30:08.119Z,2.45
2023-10-14T12:31:14.402Z,2.92
2023-10-14T12:32:19.973Z,2.45
2023-10-14T12:33:23.901Z,2.80
2023-10-14T12:34:29.625Z,2.40
2023-10-14T12:35:35.205Z,2.22
2023-10-14T12:36:42.810Z,2.38
2023-10-14T12:37:46.153Z,2.38
2023-10-14T12:38:49.958Z,2.10
2023-10-14T12:40:13.125Z,2.45
2023-10-14T12:41:23.116Z,2.92
2023-10-14T12:42:46.313Z,3.10
2023-10-14T12:43:53.573Z,2.20
2023-10-14T12:44:56.829Z,2.83
2023-10-14T12:46:24.711Z,2.70
2023-10-14T12:47:31.098Z,2.85
2023-10-14T12:48:34.421Z,2.80
2023-10-14T12:49:39.352Z,2.70
2023-10-14T12:50:42.914Z,2.63
2023-10-14T12:51:47.445Z,2.83
2023-10-14T12:52:56.450Z,2.75
2023-10-14T12:53:59.598Z,2.28
2023-10-14T12:55:18.041Z,2.97
2023-10-14T12:57:53.247Z,3.13
2023-10-14T12:59:14.281Z,2.75
2023-10-14T13:00:32.047Z,3.00
2023-10-14T13:01:37.898Z,3.00
2023-10-14T13:02:41.257Z,3.15
2023-10-14T13:03:58.541Z,3.30
2023-10-14T13:05:04.505Z,2.90
2023-10-14T13:06:08.009Z,3.30
2023-10-14T13:07:11.691Z,2.50
2023-10-14T13:08:27.153Z,2.47
2023-10-14T13:09:56.492Z,2.92
2023-10-14T13:11:10.987Z,3.15
2023-10-14T13:12:17.801Z,3.03
2023-10-14T13:13:22.521Z,3.40
2023-10-14T13:14:29.687Z,2.88
2023-10-14T13:15:36.686Z,2.80
2023-10-14T13:16:40.148Z,3.15
2023-10-14T13:17:43.543Z,3.45
2023-10-14T13:18:48.865Z,2.60
2023-10-14T13:19:52.593Z,2.83
2023-10-14T13:20:59.857Z,3.50
2023-10-14T13:22:13.855Z,2.65
2023-10-14T13:23:31.292Z,2.45
2023-10-14T13:24:57.732Z,2.60
2023-10-14T13:26:11.401Z,3.78
2023-10-14T13:27:15.980Z,2.72
2023-10-14T13:28:20.928Z,2.95
2023-10-14T13:29:28.835Z,2.47
2023-10-14T13:30:34.332Z,3.38
2023-10-14T13:31:41.330Z,2.38
2023-10-14T13:32:44.757Z,3.15
2023-10-14T13:33:51.318Z,4.15
2023-10-14T13:34:55.200Z,2.75
2023-10-14T13:36:01.417Z,2.50
2023-10-14T13:37:05.678Z,3.40
2023-10-14T13:38:12.139Z,2.40
2023-10-14T13:39:18.348Z,2.53
2023-10-14T13:40:39.651Z,2.00
2023-10-14T13:41:50.053Z,3.53
2023-10-14T13:42:55.011Z,2.10
2023-10-14T13:43:58.166Z,2.15
2023-10-14T13:45:01.426Z,2.83
2023-10-14T13:46:05.938Z,2.38
2023-10-14T13:47:09.376Z,3.40
2023-10-14T13:48:15.764Z,2.33
2023-10-14T13:49:26.145Z,2.88
2023-10-14T13:50:32.533Z,2.22
2023-10-14T13:51:36.046Z,2.47
2023-10-14T13:52:40.971Z,2.90
2023-10-14T13:53:46.381Z,1.92
2023-10-14T13:54:49.613Z,2.67
2023-10-14T13:55:55.843Z,2.13
2023-10-14T13:56:59.419Z,2.50
2023-10-14T13:58:13.387Z,2.83
2023-10-14T13:59:24.334Z,2.10
2023-10-14T14:00:40.905Z,3.03
2023-10-14T14:01:44.574Z,3.30
2023-10-14T14:02:49.128Z,2.78
2023-10-14T14:03:59.280Z,2.67
2023-10-14T14:05:05.608Z,4.40
2023-10-14T14:06:09.688Z,2.67
2023-10-14T14:07:13.967Z,3.17
2023-10-14T14:08:18.659Z,3.30
2023-10-14T14:09:26.074Z,2.78
2023-10-14T14:10:30.635Z,2.22
2023-10-14T14:11:34.110Z,2.92
2023-10-14T14:12:37.821Z,3.47
2023-10-14T14:13:44.320Z,2.28
2023-10-14T14:14:47.958Z,2.70
2023-10-14T14:15:53.117Z,2.92
2023-10-14T14:16:56.832Z,2.10
2023-10-14T14:18:01.359Z,2.28
2023-10-14T14:19:05.484Z,3.72
2023-10-14T14:20:09.561Z,2.90
2023-10-14T14:21:13.772Z,2.72
2023-10-14T14:22:26.148Z,2.38
2023-10-14T14:23:32.238Z,4.15
2023-10-14T14:24:36.306Z,2.92
2023-10-14T14:25:39.804Z,2.75
2023-10-14T14:26:43.407Z,2.13
2023-10-14T14:27:46.887Z,2.88
2023-10-14T14:28:53.046Z,3.08
2023-10-14T14:29:57.489Z,3.15
2023-10-14T14:31:02.240Z,5.30
2023-10-14T14:32:07.368Z,2.97
2023-10-14T14:33:11.498Z,2.28
2023-10-14T14:34:15.583Z,2.25
2023-10-14T14:35:19.348Z,2.47
2023-10-14T14:36:23.579Z,2.55
2023-10-14T14:37:29.001Z,2.78
2023-10-14T14:38:35.984Z,2.63
2023-10-14T14:39:41.581Z,2.83
2023-10-14T14:40:46.566Z,3.47
2023-10-14T14:41:54.110Z,2.40
2023-10-14T14:42:58.502Z,3.17
2023-10-14T14:44:03.456Z,2.20
2023-10-14T14:45:07.716Z,3.28
2023-10-14T14:46:13.239Z,2.55
2023-10-14T14:47:16.849Z,2.25
2023-10-14T14:48:20.524Z,2.60
2023-10-14T14:49:24.691Z,3.45
2023-10-14T14:50:35.845Z,3.00
2023-10-14T14:51:42.072Z,2.85
2023-10-14T14:52:45.917Z,2.53
2023-10-14T14:53:49.376Z,2.17
2023-10-14T14:54:55.783Z,2.35
2023-10-14T14:56:00.767Z,3.30
2023-10-14T14:57:08.289Z,3.03
2023-10-14T14:58:16.379Z,3.30
2023-10-14T14:59:20.033Z,3.70
2023-10-14T15:00:29.572Z,3.85
2023-10-14T15:01:36.157Z,3.17
2023-10-14T15:02:40.208Z,3.25
2023-10-14T15:03:46.948Z,4.30
2023-10-14T15:04:51.323Z,3.28